Time;durP1;ratioP1;P1;durP2;ratioP2;P2;SDS_P1;SDS_P2;PMS_P1;PMS_P2;Temp;Humidity;BMP_temperature;BMP_pressure;BME280_temperature;BME280_humidity;BME280_pressure;Samples;Min_cycle;Max_cycle;Signal;HPM_P1;HPM_P2
2023/06/18 00:02:02;;;;;;;29.42;25.17;;;;;;;;;;5037045;28;20497;-58
2023/06/18 00:04:29;;;;;;;31.55;25.38;;;;;;;;;;5021248;28;20064;-59
2023/06/18 00:06:56;;;;;;;29.58;23.77;;;;;;;;;;5017454;28;20046;-58
2023/06/18 00:09:23;;;;;;;26.95;24.15;;;;;;;;;;5031540;28;20449;-58
2023/06/18 00:11:51;;;;;;;28.85;24.23;;;;;;;;;;5036780;28;20115;-57
2023/06/18 00:14:20;;;;;;;26.45;22.67;;;;;;;;;;5037124;28;20462;-57
2023/06/18 00:16:46;;;;;;;26.30;23.60;;;;;;;;;;5036954;28;20049;-58
2023/06/18 00:19:14;;;;;;;26.70;23.48;;;;;;;;;;5036483;28;20536;-57
2023/06/18 00:21:41;;;;;;;24.88;21.80;;;;;;;;;;5036720;28;20504;-57
2023/06/18 00:24:08;;;;;;;25.15;21.55;;;;;;;;;;5037694;28;20095;-57
2023/06/18 00:26:35;;;;;;;23.55;20.55;;;;;;;;;;5026245;28;20105;-57
2023/06/18 00:29:02;;;;;;;23.77;20.95;;;;;;;;;;5028539;28;20425;-56
2023/06/18 00:31:32;;;;;;;22.05;19.42;;;;;;;;;;5036425;28;20477;-58
2023/06/18 00:34:04;;;;;;;21.55;18.45;;;;;;;;;;5037169;28;20050;-57
2023/06/18 00:36:32;;;;;;;20.02;17.92;;;;;;;;;;5027449;28;20046;-58
2023/06/18 00:38:59;;;;;;;20.17;16.30;;;;;;;;;;5019921;28;20111;-58
2023/06/18 00:41:27;;;;;;;16.88;14.95;;;;;;;;;;5036781;28;20049;-58
2023/06/18 00:43:57;;;;;;;15.48;13.55;;;;;;;;;;5024386;28;20088;-58
2023/06/18 00:46:25;;;;;;;16.83;14.15;;;;;;;;;;5037512;28;20061;-58
2023/06/18 00:48:54;;;;;;;16.67;14.90;;;;;;;;;;5037458;28;20049;-57
2023/06/18 00:51:22;;;;;;;18.55;15.65;;;;;;;;;;5037151;28;20379;-59
2023/06/18 00:53:49;;;;;;;21.55;19.08;;;;;;;;;;5013053;28;20065;-56
2023/06/18 00:56:17;;;;;;;22.20;18.58;;;;;;;;;;5029188;28;20422;-57
2023/06/18 00:58:47;;;;;;;20.65;18.30;;;;;;;;;;4997319;28;20061;-58
2023/06/18 01:01:14;;;;;;;22.45;19.98;;;;;;;;;;4998369;28;20141;-58
2023/06/18 01:03:42;;;;;;;22.27;19.88;;;;;;;;;;5007685;28;20058;-58
2023/06/18 01:06:12;;;;;;;21.48;18.92;;;;;;;;;;5017208;28;20046;-58
2023/06/18 01:08:43;;;;;;;20.63;18.38;;;;;;;;;;5012997;28;20152;-58
2023/06/18 01:11:10;;;;;;;19.35;16.92;;;;;;;;;;4997913;28;20053;-58
2023/06/18 01:13:42;;;;;;;19.95;17.88;;;;;;;;;;4997699;28;20104;-58
2023/06/18 01:16:09;;;;;;;19.30;17.30;;;;;;;;;;4997953;28;20053;-57
2023/06/18 01:18:41;;;;;;;19.38;17.38;;;;;;;;;;4997473;28;20054;-56
2023/06/18 01:21:13;;;;;;;21.40;17.50;;;;;;;;;;4997010;28;20046;-58
2023/06/18 01:23:49;;;;;;;18.60;16.60;;;;;;;;;;4997483;28;20116;-57
2023/06/18 01:26:20;;;;;;;17.55;15.73;;;;;;;;;;4997111;28;20523;-57
2023/06/18 01:28:50;;;;;;;19.67;16.20;;;;;;;;;;4997104;28;20058;-59
2023/06/18 01:31:20;;;;;;;17.33;15.52;;;;;;;;;;5016132;28;20140;-58
2023/06/18 01:33:51;;;;;;;;;;;;;;;;;;5021714;28;20573;-58
2023/06/18 01:36:24;;;;;;;;;;;;;;;;;;5020731;28;20378;-58
2023/06/18 01:38:56;;;;;;;18.48;15.63;;;;;;;;;;5032755;28;19921;-59
2023/06/18 01:41:27;;;;;;;16.70;14.77;;;;;;;;;;5040195;28;20053;-59
2023/06/18 01:43:58;;;;;;;17.02;15.13;;;;;;;;;;5038287;28;20049;-60
2023/06/18 01:46:26;;;;;;;;;;;;;;;;;;5027641;28;20102;-61
2023/06/18 01:48:56;;;;;;;15.65;13.63;;;;;;;;;;5035614;28;19921;-56
2023/06/18 01:51:27;;;;;;;15.55;13.27;;;;;;;;;;5035550;28;20049;-59
2023/06/18 01:53:55;;;;;;;;;;;;;;;;;;5035349;28;20045;-59
2023/06/18 01:56:23;;;;;;;16.30;13.88;;;;;;;;;;5036036;28;19925;-62
2023/06/18 01:58:50;;;;;;;17.58;14.13;;;;;;;;;;5034810;28;20455;-62
2023/06/18 02:01:20;;;;;;;17.00;13.93;;;;;;;;;;5014010;28;20045;-62
2023/06/18 02:03:46;;;;;;;15.75;13.68;;;;;;;;;;5019437;28;20049;-61
2023/06/18 02:06:13;;;;;;;19.70;14.50;;;;;;;;;;5034467;28;20061;-61
2023/06/18 02:08:42;;;;;;;15.55;13.90;;;;;;;;;;5034364;28;20049;-62
2023/06/18 02:11:09;;;;;;;16.92;14.85;;;;;;;;;;5034585;28;20045;-62
2023/06/18 02:13:36;;;;;;;16.30;14.60;;;;;;;;;;5034471;28;20458;-62
2023/06/18 02:16:03;;;;;;;16.00;14.00;;;;;;;;;;5010659;28;20054;-62
2023/06/18 02:18:30;;;;;;;15.52;13.93;;;;;;;;;;4995028;28;20532;-63
2023/06/18 02:20:56;;;;;;;14.52;13.02;;;;;;;;;;4995365;28;20136;-61
2023/06/18 02:23:23;;;;;;;14.20;12.18;;;;;;;;;;5012821;28;20057;-62
2023/06/18 02:25:52;;;;;;;15.48;13.15;;;;;;;;;;5032563;28;20049;-62
2023/06/18 02:28:18;;;;;;;17.75;14.20;;;;;;;;;;5014451;28;20081;-62
2023/06/18 02:30:45;;;;;;;15.52;13.95;;;;;;;;;;5014511;28;20077;-62
2023/06/18 02:33:12;;;;;;;15.65;13.45;;;;;;;;;;5014853;28;20518;-61
2023/06/18 02:35:39;;;;;;;17.23;14.85;;;;;;;;;;5034458;28;20060;-61
2023/06/18 02:38:06;;;;;;;19.20;15.40;;;;;;;;;;5034962;28;20053;-63
2023/06/18 02:40:33;;;;;;;17.80;15.85;;;;;;;;;;5034888;28;20473;-62
2023/06/18 02:43:04;;;;;;;17.95;15.40;;;;;;;;;;5004174;28;20077;-62
2023/06/18 02:45:32;;;;;;;18.23;16.27;;;;;;;;;;4994217;28;20109;-62
2023/06/18 02:47:58;;;;;;;19.05;17.02;;;;;;;;;;4994146;28;20057;-62
2023/06/18 02:50:25;;;;;;;18.98;16.58;;;;;;;;;;4994255;28;20046;-61
2023/06/18 02:52:54;;;;;;;19.58;17.45;;;;;;;;;;5019563;28;20054;-61
2023/06/18 02:55:22;;;;;;;19.23;17.20;;;;;;;;;;5029130;28;20053;-62
2023/06/18 02:57:49;;;;;;;19.60;17.55;;;;;;;;;;5026538;28;20107;-61
2023/06/18 03:00:19;;;;;;;19.85;17.05;;;;;;;;;;5027396;28;20088;-61
2023/06/18 03:02:46;;;;;;;18.45;16.40;;;;;;;;;;5015804;28;20499;-61
2023/06/18 03:05:13;;;;;;;18.65;15.23;;;;;;;;;;5029855;28;20053;-61
2023/06/18 03:07:40;;;;;;;17.80;15.52;;;;;;;;;;5033761;28;20053;-62
2023/06/18 03:10:07;;;;;;;16.40;12.68;;;;;;;;;;5033581;28;20053;-62
2023/06/18 03:12:34;;;;;;;14.32;11.80;;;;;;;;;;5030738;28;20046;-61
2023/06/18 03:15:01;;;;;;;14.88;12.27;;;;;;;;;;5033217;28;20470;-61
2023/06/18 03:17:29;;;;;;;16.45;11.30;;;;;;;;;;5032806;28;20050;-62
2023/06/18 03:19:56;;;;;;;13.57;10.95;;;;;;;;;;5032870;28;20053;-61
2023/06/18 03:22:23;;;;;;;13.60;10.35;;;;;;;;;;5032973;28;20056;-61
2023/06/18 03:24:50;;;;;;;12.68;10.45;;;;;;;;;;5033065;28;20045;-60
2023/06/18 03:27:17;;;;;;;12.27;10.40;;;;;;;;;;5032914;28;20056;-62
2023/06/18 03:29:44;;;;;;;13.35;10.32;;;;;;;;;;5034266;22;20140;-84
2023/06/18 03:32:11;;;;;;;11.68;9.75;;;;;;;;;;5014224;28;20053;-84
2023/06/18 03:34:42;;;;;;;12.50;10.27;;;;;;;;;;5014804;28;20050;-85
2023/06/18 03:37:09;;;;;;;11.57;9.88;;;;;;;;;;5015247;28;20076;-85
2023/06/18 03:39:35;;;;;;;12.45;10.10;;;;;;;;;;5014521;28;20054;-85
2023/06/18 03:42:02;;;;;;;10.95;9.57;;;;;;;;;;5014757;28;20108;-85
2023/06/18 03:44:29;;;;;;;14.63;10.57;;;;;;;;;;5014248;28;20084;-86
2023/06/18 03:46:55;;;;;;;12.77;10.65;;;;;;;;;;5014060;28;20048;-85
2023/06/18 03:49:22;;;;;;;12.77;10.13;;;;;;;;;;5014456;28;20492;-85
2023/06/18 03:51:50;;;;;;;12.75;9.82;;;;;;;;;;5014535;28;20084;-85
2023/06/18 03:54:17;;;;;;;14.07;10.80;;;;;;;;;;5014783;28;20412;-84
2023/06/18 03:56:43;;;;;;;12.55;10.50;;;;;;;;;;5021887;28;20073;-85
2023/06/18 03:59:10;;;;;;;12.38;10.38;;;;;;;;;;5013550;28;20042;-85
2023/06/18 04:01:37;;;;;;;13.30;11.00;;;;;;;;;;5019038;28;20508;-86
2023/06/18 04:04:04;;;;;;;13.57;10.70;;;;;;;;;;5014673;28;20526;-85
2023/06/18 04:06:31;;;;;;;14.45;11.52;;;;;;;;;;4999386;28;20054;-85
2023/06/18 04:08:59;;;;;;;14.35;11.77;;;;;;;;;;4997080;28;20053;-86
2023/06/18 04:11:26;;;;;;;13.90;11.70;;;;;;;;;;4994161;28;20529;-86
2023/06/18 04:13:53;;;;;;;16.15;12.27;;;;;;;;;;4993401;28;20046;-86
2023/06/18 04:16:20;;;;;;;16.38;13.82;;;;;;;;;;4993654;28;20446;-86
2023/06/18 04:18:47;;;;;;;18.25;14.90;;;;;;;;;;4993575;28;20046;-85
2023/06/18 04:21:13;;;;;;;17.48;15.30;;;;;;;;;;4993535;28;20559;-85
2023/06/18 04:23:41;;;;;;;17.25;13.85;;;;;;;;;;4993726;28;20109;-86
2023/06/18 04:26:09;;;;;;;16.20;12.30;;;;;;;;;;4993986;28;20050;-85
2023/06/18 04:28:36;;;;;;;14.50;12.05;;;;;;;;;;4993368;28;20066;-86
2023/06/18 04:31:03;;;;;;;12.00;10.70;;;;;;;;;;4993208;28;20491;-85
2023/06/18 04:33:30;;;;;;;12.35;10.55;;;;;;;;;;4994001;28;20493;-86
2023/06/18 04:35:56;;;;;;;12.88;10.40;;;;;;;;;;4994348;28;20130;-86
2023/06/18 04:38:23;;;;;;;11.55;10.27;;;;;;;;;;4994602;28;20054;-86
2023/06/18 04:40:50;;;;;;;11.57;10.18;;;;;;;;;;4995872;28;20053;-86
2023/06/18 04:43:18;;;;;;;11.30;9.70;;;;;;;;;;4994352;28;20054;-86
2023/06/18 04:45:46;;;;;;;13.15;10.38;;;;;;;;;;5008426;28;20050;-86
2023/06/18 04:48:14;;;;;;;11.35;9.43;;;;;;;;;;5013473;28;20049;-86
2023/06/18 04:50:40;;;;;;;12.45;10.23;;;;;;;;;;5015259;28;20132;-86
2023/06/18 04:53:07;;;;;;;12.90;10.48;;;;;;;;;;5015671;28;20127;-86
2023/06/18 04:55:34;;;;;;;11.98;10.05;;;;;;;;;;5013403;28;20046;-85
2023/06/18 04:58:01;;;;;;;13.35;10.13;;;;;;;;;;5013449;28;20113;-85
2023/06/18 05:00:29;;;;;;;12.00;9.93;;;;;;;;;;5013053;28;20390;-86
2023/06/18 05:02:57;;;;;;;12.57;10.02;;;;;;;;;;5013001;28;20046;-86
2023/06/18 05:05:23;;;;;;;12.10;9.93;;;;;;;;;;5015426;28;20489;-85
2023/06/18 05:07:50;;;;;;;12.80;9.95;;;;;;;;;;5017047;28;20062;-85
2023/06/18 05:10:17;;;;;;;11.60;9.85;;;;;;;;;;5016710;28;20452;-85
2023/06/18 05:12:44;;;;;;;11.60;10.38;;;;;;;;;;5017563;28;20042;-85
2023/06/18 05:15:10;;;;;;;12.32;10.05;;;;;;;;;;5016841;28;20124;-85
2023/06/18 05:17:38;;;;;;;12.57;10.20;;;;;;;;;;5017096;28;20058;-86
2023/06/18 05:20:08;;;;;;;12.10;9.95;;;;;;;;;;5016500;28;20052;-85
2023/06/18 05:22:34;;;;;;;13.07;10.73;;;;;;;;;;5018563;28;20041;-86
2023/06/18 05:25:04;;;;;;;12.50;10.27;;;;;;;;;;5031587;28;20041;-86
2023/06/18 05:27:31;;;;;;;11.55;10.27;;;;;;;;;;5035204;28;20076;-86
2023/06/18 05:29:59;;;;;;;12.23;10.13;;;;;;;;;;5027120;28;20104;-85
2023/06/18 05:32:25;;;;;;;15.02;11.43;;;;;;;;;;5017672;28;20049;-86
2023/06/18 05:34:55;;;;;;;13.98;10.85;;;;;;;;;;5017304;28;20555;-86
2023/06/18 05:37:22;;;;;;;14.43;11.30;;;;;;;;;;5017471;28;20079;-87
2023/06/18 05:39:50;;;;;;;13.82;11.85;;;;;;;;;;5016795;28;20046;-86
2023/06/18 05:42:17;;;;;;;12.90;11.52;;;;;;;;;;5017166;28;20049;-86
2023/06/18 05:44:44;;;;;;;13.50;12.07;;;;;;;;;;5016971;28;20125;-86
2023/06/18 05:47:12;;;;;;;14.35;12.25;;;;;;;;;;5016926;28;20171;-87
2023/06/18 05:49:39;;;;;;;16.30;13.27;;;;;;;;;;5016833;28;20050;-86
2023/06/18 05:52:07;;;;;;;15.90;12.90;;;;;;;;;;5016460;28;20046;-86
2023/06/18 05:54:34;;;;;;;14.00;12.40;;;;;;;;;;5015938;28;20132;-86
2023/06/18 05:57:01;;;;;;;14.63;12.75;;;;;;;;;;5015849;28;20050;-86
2023/06/18 05:59:28;;;;;;;16.13;14.35;;;;;;;;;;5016036;28;20045;-86
2023/06/18 06:01:55;;;;;;;17.77;15.15;;;;;;;;;;5016446;28;20141;-86
2023/06/18 06:04:21;;;;;;;14.82;12.68;;;;;;;;;;5017679;28;20060;-86
2023/06/18 06:06:48;;;;;;;14.27;11.43;;;;;;;;;;5018390;28;20471;-86
2023/06/18 06:09:16;;;;;;;16.17;11.88;;;;;;;;;;5017853;28;20046;-86
2023/06/18 06:11:43;;;;;;;11.65;9.90;;;;;;;;;;5017748;28;20057;-86
2023/06/18 06:14:15;;;;;;;16.80;10.30;;;;;;;;;;5018642;28;20104;-86
2023/06/18 06:16:42;;;;;;;12.38;9.48;;;;;;;;;;5028036;28;20180;-86
2023/06/18 06:19:09;;;;;;;11.20;8.77;;;;;;;;;;5017107;28;20492;-86
2023/06/18 06:21:35;;;;;;;10.10;9.10;;;;;;;;;;5015430;28;20045;-85
2023/06/18 06:24:02;;;;;;;10.90;8.77;;;;;;;;;;5015502;28;20057;-87
2023/06/18 06:26:31;;;;;;;10.98;9.40;;;;;;;;;;5015735;28;20061;-87
2023/06/18 06:28:57;;;;;;;11.68;9.93;;;;;;;;;;5014891;28;20085;-85
2023/06/18 06:31:24;;;;;;;12.90;10.70;;;;;;;;;;5014998;28;20531;-86
2023/06/18 06:33:51;;;;;;;13.43;10.25;;;;;;;;;;5015837;28;20054;-86
2023/06/18 06:36:18;;;;;;;13.45;12.00;;;;;;;;;;5016919;28;20049;-85
2023/06/18 06:38:44;;;;;;;15.90;11.65;;;;;;;;;;5015808;28;20050;-86
2023/06/18 06:41:11;;;;;;;12.57;10.07;;;;;;;;;;5015790;28;20057;-85
2023/06/18 06:43:40;;;;;;;12.30;10.02;;;;;;;;;;5016973;28;20119;-85
2023/06/18 06:46:07;;;;;;;11.07;9.95;;;;;;;;;;5015777;28;20081;-86
2023/06/18 06:48:34;;;;;;;12.55;10.55;;;;;;;;;;5018552;28;20406;-86
2023/06/18 06:51:00;;;;;;;12.65;11.32;;;;;;;;;;5016413;28;20042;-85
2023/06/18 06:53:27;;;;;;;13.05;11.57;;;;;;;;;;5019139;28;20042;-86
2023/06/18 06:55:56;;;;;;;13.93;11.45;;;;;;;;;;5017040;28;20129;-86
2023/06/18 06:58:23;;;;;;;12.73;10.77;;;;;;;;;;5016311;28;20428;-85
2023/06/18 07:00:51;;;;;;;12.25;10.80;;;;;;;;;;5016720;28;20050;-86
2023/06/18 07:03:18;;;;;;;13.82;11.65;;;;;;;;;;5017726;28;20144;-86
2023/06/18 07:05:44;;;;;;;12.75;11.23;;;;;;;;;;5018430;28;20049;-86
2023/06/18 07:08:11;;;;;;;13.30;10.98;;;;;;;;;;5021369;28;20037;-83
2023/06/18 07:10:38;;;;;;;11.43;9.40;;;;;;;;;;5023647;28;20112;-84
2023/06/18 07:13:05;;;;;;;11.85;9.57;;;;;;;;;;5020722;28;20054;-84
2023/06/18 07:15:32;;;;;;;11.38;9.75;;;;;;;;;;5023274;28;20052;-85
2023/06/18 07:18:00;;;;;;;13.27;8.98;;;;;;;;;;5025526;28;20049;-84
2023/06/18 07:20:27;;;;;;;10.15;8.93;;;;;;;;;;5022756;28;20046;-84
2023/06/18 07:22:53;;;;;;;12.10;8.75;;;;;;;;;;5021996;28;20046;-86
2023/06/18 07:25:20;;;;;;;11.95;9.80;;;;;;;;;;5025183;28;20041;-85
2023/06/18 07:27:47;;;;;;;10.38;8.25;;;;;;;;;;5019527;28;20046;-85
2023/06/18 07:30:14;;;;;;;11.65;8.60;;;;;;;;;;5027208;28;20086;-86
2023/06/18 07:32:41;;;;;;;10.18;8.27;;;;;;;;;;5039237;28;20041;-85
2023/06/18 07:35:09;;;;;;;10.10;8.23;;;;;;;;;;5038246;28;20049;-86
2023/06/18 07:37:36;;;;;;;10.68;8.52;;;;;;;;;;5043046;28;20050;-85
2023/06/18 07:40:03;;;;;;;11.30;8.77;;;;;;;;;;5033139;28;20058;-85
2023/06/18 07:42:30;;;;;;;10.88;9.18;;;;;;;;;;5011736;28;20077;-85
2023/06/18 07:44:56;;;;;;;11.20;9.43;;;;;;;;;;5017060;28;20137;-85
2023/06/18 07:47:23;;;;;;;12.95;8.70;;;;;;;;;;5016681;28;20141;-85
2023/06/18 07:49:50;;;;;;;10.63;8.07;;;;;;;;;;5017665;28;20046;-85
2023/06/18 07:52:18;;;;;;;9.18;7.60;;;;;;;;;;5011646;28;20043;-86
2023/06/18 07:54:45;;;;;;;10.98;8.05;;;;;;;;;;5016438;28;20042;-86
2023/06/18 07:57:12;;;;;;;9.18;7.68;;;;;;;;;;5023012;28;20572;-86
2023/06/18 07:59:39;;;;;;;9.43;7.85;;;;;;;;;;5021738;28;20080;-86
2023/06/18 08:02:06;;;;;;;10.05;8.10;;;;;;;;;;5020225;28;20136;-86
2023/06/18 08:04:33;;;;;;;9.23;7.45;;;;;;;;;;5017754;28;20133;-86
2023/06/18 08:06:59;;;;;;;9.05;7.72;;;;;;;;;;5016279;28;20072;-86
2023/06/18 08:09:27;;;;;;;10.13;7.82;;;;;;;;;;5018317;28;20133;-86
2023/06/18 08:11:55;;;;;;;10.00;7.05;;;;;;;;;;5015010;28;20097;-86
2023/06/18 08:14:22;;;;;;;10.10;7.85;;;;;;;;;;5023546;28;20057;-86
2023/06/18 08:16:49;;;;;;;8.98;7.18;;;;;;;;;;5005969;28;20046;-86
2023/06/18 08:19:15;;;;;;;9.82;8.02;;;;;;;;;;5002546;28;20058;-86
2023/06/18 08:21:42;;;;;;;9.93;7.88;;;;;;;;;;5000702;28;20079;-83
2023/06/18 08:24:09;;;;;;;10.20;7.63;;;;;;;;;;5000465;28;20483;-86
2023/06/18 08:26:37;;;;;;;9.68;7.82;;;;;;;;;;5014989;28;20057;-85
2023/06/18 08:29:04;;;;;;;9.70;7.28;;;;;;;;;;5015230;28;20061;-84
2023/06/18 08:31:32;;;;;;;8.82;7.28;;;;;;;;;;5007441;28;20054;-85
2023/06/18 08:33:59;;;;;;;10.07;7.68;;;;;;;;;;4998034;28;20074;-84
2023/06/18 08:36:25;;;;;;;9.65;7.50;;;;;;;;;;4998515;28;20133;-85
2023/06/18 08:38:52;;;;;;;9.20;7.20;;;;;;;;;;4997712;28;20082;-84
2023/06/18 08:41:19;;;;;;;10.52;7.75;;;;;;;;;;4997359;28;20050;-84
2023/06/18 08:43:47;;;;;;;9.07;7.50;;;;;;;;;;5012305;28;20110;-84
2023/06/18 08:46:16;;;;;;;8.18;7.05;;;;;;;;;;5015699;28;20602;-84
2023/06/18 08:48:45;;;;;;;9.82;6.82;;;;;;;;;;5017721;28;20060;-83
2023/06/18 08:51:12;;;;;;;9.95;7.30;;;;;;;;;;5019594;28;20457;-83
2023/06/18 08:53:49;;;;;;;8.80;7.15;;;;;;;;;;5033704;28;20065;-83
2023/06/18 08:56:19;;;;;;;9.07;7.05;;;;;;;;;;5034570;28;20057;-84
2023/06/18 08:58:50;;;;;;;8.60;7.57;;;;;;;;;;5001396;28;20478;-83
2023/06/18 09:01:18;;;;;;;11.00;7.07;;;;;;;;;;5016543;28;20121;-85
2023/06/18 09:03:46;;;;;;;8.57;6.70;;;;;;;;;;5020182;28;20078;-79
2023/06/18 09:06:13;;;;;;;10.07;7.07;;;;;;;;;;5021175;28;20414;-84
2023/06/18 09:08:40;;;;;;;8.93;7.85;;;;;;;;;;5018707;28;20520;-81
2023/06/18 09:11:07;;;;;;;8.80;6.68;;;;;;;;;;5020638;28;20042;-84
2023/06/18 09:13:40;;;;;;;8.65;7.20;;;;;;;;;;5025639;28;20689;-84
2023/06/18 09:16:08;;;;;;;9.68;6.85;;;;;;;;;;5029769;28;20050;-84
2023/06/18 09:18:35;;;;;;;11.05;7.95;;;;;;;;;;5019734;28;20058;-84
2023/06/18 09:21:03;;;;;;;9.70;7.60;;;;;;;;;;5019787;28;20096;-84
2023/06/18 09:23:30;;;;;;;9.40;7.65;;;;;;;;;;5020287;28;20145;-84
2023/06/18 09:25:58;;;;;;;8.00;7.18;;;;;;;;;;5020348;28;20085;-85
2023/06/18 09:28:26;;;;;;;9.30;7.72;;;;;;;;;;5019705;28;20077;-84
2023/06/18 09:30:55;;;;;;;9.75;7.78;;;;;;;;;;5020782;28;20042;-83
2023/06/18 09:33:30;;;;;;;10.80;7.25;;;;;;;;;;5020217;28;20137;-84
2023/06/18 09:36:01;;;;;;;8.88;7.28;;;;;;;;;;5019942;28;20148;-80
2023/06/18 09:38:35;;;;;;;8.48;7.22;;;;;;;;;;5018586;28;20084;-80
2023/06/18 09:41:03;;;;;;;9.48;7.28;;;;;;;;;;5024295;28;20149;-82
2023/06/18 09:43:34;;;;;;;11.38;8.23;;;;;;;;;;5017244;28;20050;-81
2023/06/18 09:46:03;;;;;;;13.93;7.82;;;;;;;;;;5018250;28;20046;-84
2023/06/18 09:48:32;;;;;;;8.98;7.10;;;;;;;;;;5019700;28;20046;-81
2023/06/18 09:50:59;;;;;;;9.30;8.30;;;;;;;;;;5012513;28;20545;-80
2023/06/18 09:53:25;;;;;;;9.73;8.20;;;;;;;;;;5028870;28;20046;-83
2023/06/18 09:55:52;;;;;;;11.30;7.57;;;;;;;;;;5028122;28;20057;-81
2023/06/18 09:58:19;;;;;;;9.50;8.13;;;;;;;;;;5025485;28;20517;-81
2023/06/18 10:01:04;;;;;;;8.90;7.82;;;;;;;;;;5025031;28;20089;-80
2023/06/18 10:03:36;;;;;;;10.38;8.50;;;;;;;;;;5015345;28;20088;-81
2023/06/18 10:06:18;;;;;;;9.73;7.70;;;;;;;;;;5008517;28;20046;-81
2023/06/18 10:08:53;;;;;;;10.07;8.15;;;;;;;;;;5026939;28;20045;-81
2023/06/18 10:11:35;;;;;;;10.52;8.13;;;;;;;;;;5022385;28;20046;-80
2023/06/18 10:14:05;;;;;;;13.23;8.77;;;;;;;;;;5026968;28;20126;-80
2023/06/18 10:16:34;;;;;;;10.98;8.13;;;;;;;;;;5022170;28;20416;-81
2023/06/18 10:19:04;;;;;;;9.52;8.45;;;;;;;;;;5017661;28;20069;-86
2023/06/18 10:21:34;;;;;;;10.55;7.68;;;;;;;;;;5023378;28;20049;-85
2023/06/18 10:24:09;;;;;;;15.23;11.13;;;;;;;;;;5022404;28;20140;-81
2023/06/18 10:26:38;;;;;;;13.40;10.18;;;;;;;;;;5021461;28;20054;-80
2023/06/18 10:29:06;;;;;;;27.08;16.13;;;;;;;;;;5022833;28;20077;-83
2023/06/18 10:31:33;;;;;;;42.63;25.70;;;;;;;;;;5021087;28;20042;-78
2023/06/18 10:34:00;;;;;;;43.97;23.42;;;;;;;;;;5016891;28;20100;-78
2023/06/18 10:36:29;;;;;;;109.35;54.97;;;;;;;;;;5017443;28;20058;-80
2023/06/18 10:38:56;;;;;;;39.05;23.77;;;;;;;;;;5017237;28;20053;-82
2023/06/18 10:41:23;;;;;;;23.08;14.27;;;;;;;;;;5006361;28;20046;-80
2023/06/18 10:43:51;;;;;;;19.70;12.40;;;;;;;;;;5019280;28;20463;-81
2023/06/18 10:46:22;;;;;;;14.13;9.57;;;;;;;;;;5021610;28;20096;-83
2023/06/18 10:49:14;;;;;;;18.38;12.73;;;;;;;;;;5011731;28;20125;-78
2023/06/18 10:51:42;;;;;;;42.38;23.15;;;;;;;;;;4985164;28;20068;-80
2023/06/18 10:54:23;;;;;;;17.85;12.88;;;;;;;;;;5022278;28;20124;-80
2023/06/18 10:56:55;;;;;;;15.75;11.07;;;;;;;;;;5016355;28;20053;-82
2023/06/18 10:59:36;;;;;;;25.85;14.50;;;;;;;;;;5021238;28;20050;-81
2023/06/18 11:02:03;;;;;;;16.55;12.15;;;;;;;;;;5020061;28;20084;-81
2023/06/18 11:04:30;;;;;;;22.25;15.40;;;;;;;;;;5016780;28;20125;-83
2023/06/18 11:07:15;;;;;;;30.80;18.73;;;;;;;;;;5017444;28;20046;-82
2023/06/18 11:09:50;;;;;;;80.18;41.88;;;;;;;;;;5021501;28;20073;-83
2023/06/18 11:12:21;;;;;;;22.45;13.65;;;;;;;;;;5025790;28;20045;-83
2023/06/18 11:15:07;;;;;;;45.17;26.85;;;;;;;;;;5012125;28;20153;-83
2023/06/18 11:17:34;;;;;;;19.33;13.73;;;;;;;;;;5015397;28;20081;-84
2023/06/18 11:20:03;;;;;;;21.00;13.95;;;;;;;;;;5015567;28;20137;-83
2023/06/18 11:22:31;;;;;;;10.55;9.00;;;;;;;;;;5015618;28;20049;-83
2023/06/18 11:24:59;;;;;;;15.10;11.38;;;;;;;;;;5017081;28;20046;-83
2023/06/18 11:27:27;;;;;;;11.55;8.70;;;;;;;;;;5025231;28;20050;-83
2023/06/18 11:29:56;;;;;;;22.83;15.90;;;;;;;;;;5023994;28;20050;-83
2023/06/18 11:32:24;;;;;;;;;;;;;;;;;;5034073;28;20049;-82
2023/06/18 11:34:51;;;;;;;17.27;13.52;;;;;;;;;;5035087;28;19949;-83
2023/06/18 11:37:18;;;;;;;11.40;9.98;;;;;;;;;;5028355;28;20489;-83
2023/06/18 11:39:47;;;;;;;12.70;10.65;;;;;;;;;;5024330;28;20082;-83
2023/06/18 11:42:15;;;;;;;23.10;14.07;;;;;;;;;;5023531;28;20116;-83
2023/06/18 11:44:49;;;;;;;15.05;10.77;;;;;;;;;;5022408;28;20405;-83
2023/06/18 11:47:16;;;;;;;15.32;11.32;;;;;;;;;;5024772;28;20053;-83
2023/06/18 11:49:44;;;;;;;11.13;9.60;;;;;;;;;;5026226;28;20070;-84
2023/06/18 11:52:11;;;;;;;12.25;10.32;;;;;;;;;;5027286;28;20057;-83
2023/06/18 11:54:40;;;;;;;13.95;10.93;;;;;;;;;;5025065;28;20065;-83
2023/06/18 11:57:10;;;;;;;11.07;9.88;;;;;;;;;;5029386;28;20076;-82
2023/06/18 11:59:37;;;;;;;12.05;10.82;;;;;;;;;;5029306;28;20066;-83
2023/06/18 12:02:11;;;;;;;12.20;10.07;;;;;;;;;;5030122;28;20058;-83
2023/06/18 12:04:39;;;;;;;13.88;10.68;;;;;;;;;;5029512;28;20049;-82
2023/06/18 12:07:42;;;;;;;14.43;11.02;;;;;;;;;;5020352;28;20061;-83
2023/06/18 12:10:11;;;;;;;17.25;12.13;;;;;;;;;;5015930;28;20056;-84
2023/06/18 12:12:52;;;;;;;13.85;11.63;;;;;;;;;;5024670;28;20046;-82
2023/06/18 12:15:25;;;;;;;25.10;16.10;;;;;;;;;;5021362;28;20056;-83
2023/06/18 12:17:58;;;;;;;13.63;12.07;;;;;;;;;;5017796;28;20050;-84
2023/06/18 12:20:27;;;;;;;14.60;11.55;;;;;;;;;;5019956;28;20053;-83
2023/06/18 12:22:55;;;;;;;10.52;9.43;;;;;;;;;;5018125;28;20052;-84
2023/06/18 12:25:23;;;;;;;11.90;9.57;;;;;;;;;;5019798;28;20061;-84
2023/06/18 12:27:53;;;;;;;10.63;9.02;;;;;;;;;;5021336;28;20042;-83
2023/06/18 12:30:29;;;;;;;12.38;10.50;;;;;;;;;;5018801;28;20128;-83
2023/06/18 12:33:03;;;;;;;10.30;9.20;;;;;;;;;;5020059;28;20068;-84
2023/06/18 12:35:31;;;;;;;9.80;8.73;;;;;;;;;;5016819;28;20100;-83
2023/06/18 12:38:03;;;;;;;10.70;9.10;;;;;;;;;;5018086;28;20046;-83
2023/06/18 12:40:31;;;;;;;9.70;8.70;;;;;;;;;;5023792;28;20056;-84
2023/06/18 12:43:08;;;;;;;10.38;9.27;;;;;;;;;;5021228;28;20054;-84
2023/06/18 12:45:34;;;;;;;10.57;9.50;;;;;;;;;;5013521;28;20092;-84
2023/06/18 12:48:11;;;;;;;10.48;9.23;;;;;;;;;;5013553;28;20048;-85
2023/06/18 12:50:43;;;;;;;10.10;8.70;;;;;;;;;;5016976;28;20050;-83
2023/06/18 12:53:17;;;;;;;10.75;9.23;;;;;;;;;;5015351;28;20084;-84
2023/06/18 12:55:45;;;;;;;10.00;9.00;;;;;;;;;;5014529;28;20054;-84
2023/06/18 12:58:18;;;;;;;9.60;8.70;;;;;;;;;;5014143;28;20516;-84
2023/06/18 13:00:45;;;;;;;10.20;9.13;;;;;;;;;;5030492;23;20128;-63
2023/06/18 13:03:13;;;;;;;10.13;9.10;;;;;;;;;;5031970;28;20048;-63
2023/06/18 13:05:40;;;;;;;11.63;10.15;;;;;;;;;;5031389;28;20076;-63
2023/06/18 13:08:12;;;;;;;9.80;8.77;;;;;;;;;;5031827;28;20532;-63
2023/06/18 13:10:39;;;;;;;10.27;9.18;;;;;;;;;;5031498;28;20394;-63
2023/06/18 13:13:06;;;;;;;9.35;8.43;;;;;;;;;;5031479;28;20054;-63
2023/06/18 13:15:34;;;;;;;9.57;8.68;;;;;;;;;;5028321;28;20050;-72
2023/06/18 13:18:01;;;;;;;10.15;9.05;;;;;;;;;;5031454;28;20053;-69
2023/06/18 13:20:28;;;;;;;9.55;8.55;;;;;;;;;;5031185;28;20057;-64
2023/06/18 13:22:55;;;;;;;10.05;8.52;;;;;;;;;;5030751;28;20092;-63
2023/06/18 13:25:22;;;;;;;9.80;8.80;;;;;;;;;;5031884;28;20057;-63
2023/06/18 13:27:49;;;;;;;9.73;8.73;;;;;;;;;;5035207;28;20437;-63
2023/06/18 13:30:16;;;;;;;9.77;8.77;;;;;;;;;;5035148;28;20454;-63
2023/06/18 13:32:45;;;;;;;10.07;9.00;;;;;;;;;;5035152;28;20058;-63
2023/06/18 13:35:12;;;;;;;13.02;9.20;;;;;;;;;;5035384;28;20061;-63
2023/06/18 13:37:39;;;;;;;10.20;9.27;;;;;;;;;;5035128;28;20128;-63
2023/06/18 13:40:07;;;;;;;9.68;8.68;;;;;;;;;;5034934;28;20516;-63
2023/06/18 13:42:34;;;;;;;8.65;7.75;;;;;;;;;;5035078;28;20057;-63
2023/06/18 13:45:01;;;;;;;9.65;8.63;;;;;;;;;;5034772;28;20053;-63
2023/06/18 13:47:28;;;;;;;10.82;8.73;;;;;;;;;;5034848;28;20402;-63
2023/06/18 13:49:56;;;;;;;10.25;9.25;;;;;;;;;;5034387;28;20053;-63
2023/06/18 13:52:23;;;;;;;9.85;8.85;;;;;;;;;;5034519;28;20103;-63
2023/06/18 13:54:50;;;;;;;10.23;9.23;;;;;;;;;;5034693;28;20053;-63
2023/06/18 13:57:18;;;;;;;8.57;7.78;;;;;;;;;;5034399;28;20047;-61
2023/06/18 13:59:45;;;;;;;10.00;9.00;;;;;;;;;;5034643;28;20536;-62
2023/06/18 14:02:12;;;;;;;11.73;9.20;;;;;;;;;;5033885;28;20050;-62
2023/06/18 14:04:39;;;;;;;10.48;8.48;;;;;;;;;;5031702;28;20052;-62
2023/06/18 14:07:08;;;;;;;9.18;8.27;;;;;;;;;;5027802;28;20049;-62
2023/06/18 14:09:36;;;;;;;10.23;9.17;;;;;;;;;;5031978;28;20085;-62
2023/06/18 14:12:04;;;;;;;9.60;8.60;;;;;;;;;;5031698;28;20045;-63
2023/06/18 14:14:31;;;;;;;9.07;8.20;;;;;;;;;;5032881;28;20049;-62
2023/06/18 14:16:58;;;;;;;9.55;8.63;;;;;;;;;;5032645;28;20507;-62
2023/06/18 14:19:26;;;;;;;9.48;8.43;;;;;;;;;;5032272;28;20053;-62
2023/06/18 14:21:53;;;;;;;9.38;8.07;;;;;;;;;;5032629;28;20053;-62
2023/06/18 14:24:21;;;;;;;9.70;8.02;;;;;;;;;;5032348;28;20056;-63
2023/06/18 14:26:48;;;;;;;9.45;8.50;;;;;;;;;;5032521;28;20057;-63
2023/06/18 14:29:15;;;;;;;9.90;8.88;;;;;;;;;;5032129;28;20062;-63
2023/06/18 14:31:42;;;;;;;9.07;8.15;;;;;;;;;;5031664;28;20049;-63
2023/06/18 14:34:09;;;;;;;9.77;8.52;;;;;;;;;;5032234;28;20056;-63